Time;durP1;ratioP1;P1;durP2;ratioP2;P2;SDS_P1;SDS_P2;PMS_P1;PMS_P2;Temp;Humidity;BMP_temperature;BMP_pressure;BME280_temperature;BME280_humidity;BME280_pressure;Samples;Min_cycle;Max_cycle;Signal;HPM_P1;HPM_P2
2022/12/10 00:09:33;;;;;;;7.45;2.00;;;;;;;22.38;38.21;102412.00;20839394;28;20052;-60
2022/12/10 00:19:34;;;;;;;5.30;1.80;;;;;;;22.42;38.27;102421.53;20836782;28;20045;-60
2022/12/10 00:29:36;;;;;;;7.63;2.10;;;;;;;22.27;37.94;102391.47;20837589;28;20095;-60
2022/12/10 00:39:37;;;;;;;4.93;1.75;;;;;;;22.38;38.04;102405.56;20836473;28;20033;-61
2022/12/10 00:49:39;;;;;;;7.65;1.65;;;;;;;22.37;37.93;102406.69;20837168;28;20038;-61
2022/12/10 00:59:40;;;;;;;5.80;1.35;;;;;;;22.36;38.08;102416.13;20833944;28;20041;-62
2022/12/10 01:09:41;;;;;;;3.83;1.88;;;;;;;22.36;37.56;102422.56;20834607;28;20041;-62
2022/12/10 01:19:43;;;;;;;3.17;1.50;;;;;;;22.39;37.44;102437.94;20832905;28;20566;-62
2022/12/10 01:29:44;;;;;;;2.63;1.58;;;;;;;22.30;37.63;102410.47;20833740;28;20042;-62
2022/12/10 01:39:45;;;;;;;4.72;1.60;;;;;;;22.42;37.70;102434.66;20831040;28;20103;-62
2022/12/10 01:49:47;;;;;;;5.47;1.58;;;;;;;22.46;37.42;102444.19;20831243;28;20083;-61
2022/12/10 02:00:01;;;;;;;1.58;1.38;;;;;;;22.36;37.73;102435.66;20831214;28;20392;-61
2022/12/10 02:10:02;;;;;;;2.03;1.30;;;;;;;22.48;37.50;102458.72;20829458;28;20034;-62
2022/12/10 02:20:43;;;;;;;2.47;1.27;;;;;;;22.40;37.49;102454.41;20830126;28;20045;-62
2022/12/10 02:30:48;;;;;;;1.45;1.25;;;;;;;22.48;37.40;102453.13;20733343;28;20029;-62
2022/12/10 02:40:54;;;;;;;2.17;1.30;;;;;;;22.47;37.40;102454.25;20829860;28;20033;-61
2022/12/10 02:50:58;;;;;;;1.67;1.40;;;;;;;22.48;37.45;102464.28;20826814;28;20076;-62
2022/12/10 03:01:46;;;;;;;2.63;1.40;;;;;;;22.39;37.16;102471.41;20828769;28;20107;-62
2022/12/10 03:11:56;;;;;;;2.00;1.23;;;;;;;22.48;36.94;102497.78;20836492;28;20029;-62
2022/12/10 03:22:00;;;;;;;2.58;1.95;;;;;;;22.46;36.76;102474.88;20855827;28;20041;-62
2022/12/10 03:32:02;;;;;;;1.90;1.30;;;;;;;22.52;36.49;102487.78;20859658;28;20050;-61
2022/12/10 03:42:06;;;;;;;1.88;1.30;;;;;;;22.51;36.63;102502.84;20812326;28;20033;-62
2022/12/10 03:52:11;;;;;;;1.77;1.48;;;;;;;22.45;36.89;102506.63;20838957;28;20570;-63
2022/12/10 04:02:13;;;;;;;1.50;1.30;;;;;;;22.43;36.58;102511.63;20838247;28;20053;-62
2022/12/10 04:12:14;;;;;;;1.30;1.05;;;;;;;22.39;36.42;102510.44;20841162;28;20484;-61
2022/12/10 04:32:35;;;;;;;2.70;1.73;;;;;;;22.39;36.74;102499.28;20845334;28;20037;-61
2022/12/10 04:42:37;;;;;;;1.20;1.10;;;;;;;22.37;36.53;102507.09;20835965;28;20041;-62
2022/12/10 04:52:38;;;;;;;2.03;1.02;;;;;;;22.35;36.50;102482.22;20772543;28;1796344;-62
2022/12/10 05:02:40;;;;;;;1.83;1.50;;;;;;;22.32;36.36;102479.94;20819992;28;20126;-62
2022/12/10 05:12:41;;;;;;;2.25;1.40;;;;;;;22.24;36.54;102475.63;20830658;28;20041;-62
2022/12/10 05:33:02;;;;;;;1.65;1.35;;;;;;;22.12;36.47;102472.06;20835525;28;20033;-62
2022/12/10 05:43:04;;;;;;;2.55;1.40;;;;;;;22.07;36.50;102460.78;20831972;28;20045;-62
2022/12/10 05:53:05;;;;;;;2.85;1.70;;;;;;;22.05;36.57;102457.44;20831171;28;20049;-60
2022/12/10 06:03:08;;;;;;;4.28;1.50;;;;;;;22.06;36.69;102453.53;20830330;28;20076;-61
2022/12/10 06:13:12;;;;;;;2.28;1.65;;;;;;;21.98;36.23;102453.94;20828548;28;20558;-61
2022/12/10 06:23:16;;;;;;;3.30;1.80;;;;;;;21.99;36.69;102461.19;20829644;28;20103;-62
2022/12/10 06:33:20;;;;;;;2.20;1.60;;;;;;;22.00;36.65;102471.28;20828766;28;20049;-62
2022/12/10 06:43:22;;;;;;;1.25;1.15;;;;;;;21.99;36.63;102475.13;20828658;28;20029;-62
2022/12/10 06:53:23;;;;;;;1.50;1.35;;;;;;;22.03;36.13;102479.97;20827798;28;20053;-62
2022/12/10 07:03:25;;;;;;;1.80;1.38;;;;;;;22.06;36.34;102484.19;20826611;28;20041;-61
2022/12/10 07:13:29;;;;;;;2.33;1.27;;;;;;;22.08;36.25;102487.56;20827299;28;20057;-61
2022/12/10 07:23:30;;;;;;;2.33;1.40;;;;;;;22.09;36.31;102492.06;20826415;28;20056;-61
2022/12/10 07:33:35;;;;;;;1.65;1.23;;;;;;;22.10;36.20;102485.41;20823703;28;20056;-62
2022/12/10 07:43:39;;;;;;;1.25;1.10;;;;;;;22.03;36.08;102468.81;20826329;28;20054;-63
2022/12/10 07:53:44;;;;;;;1.70;1.17;;;;;;;21.98;36.11;102470.66;20806583;28;20058;-63
2022/12/10 08:03:48;;;;;;;1.63;1.25;;;;;;;22.13;35.85;102490.50;20820112;28;20092;-63
2022/12/10 08:13:53;;;;;;;2.20;1.40;;;;;;;22.13;36.03;102490.50;20840010;28;20119;-63
2022/12/10 08:23:55;;;;;;;1.20;0.95;;;;;;;22.08;35.94;102488.44;20838855;28;20061;-62
2022/12/10 08:33:56;;;;;;;2.47;0.85;;;;;;;22.12;35.73;102504.69;20838371;28;20480;-62
2022/12/10 08:44:01;;;;;;;0.93;0.80;;;;;;;21.98;35.62;102487.41;20837624;28;20113;-60
2022/12/10 08:54:05;;;;;;;1.00;0.90;;;;;;;22.05;35.32;102499.25;20837061;28;20049;-62
2022/12/10 09:04:09;;;;;;;1.02;0.93;;;;;;;22.04;35.59;102494.78;20809101;28;20045;-62
2022/12/10 09:14:11;;;;;;;1.10;1.00;;;;;;;22.08;35.37;102507.09;20833197;28;20041;-62
2022/12/10 09:24:13;;;;;;;1.98;0.70;;;;;;;22.05;35.43;102510.41;20830229;28;20041;-63
2022/12/10 09:34:14;;;;;;;1.00;0.88;;;;;;;21.96;35.03;102518.31;20829150;28;20107;-62
2022/12/10 09:44:19;;;;;;;0.98;0.88;;;;;;;21.99;34.85;102539.25;20831795;28;20472;-62
2022/12/10 09:54:38;;;;;;;0.93;0.73;;;;;;;21.97;35.15;102547.03;20830326;28;20516;-62
2022/12/10 10:04:39;;;;;;;;;;;;;;;21.94;35.54;102561.47;20825843;28;20366;-62
2022/12/10 10:14:43;;;;;;;1.52;1.08;;;;;;;21.96;34.89;102556.50;20829715;28;20363;-63
2022/12/10 10:24:46;;;;;;;0.80;0.80;;;;;;;21.72;35.11;102539.88;20750525;28;20481;-62
2022/12/10 10:34:54;;;;;;;1.10;0.90;;;;;;;21.85;35.61;102574.09;20825456;28;20083;-63
2022/12/10 10:44:58;;;;;;;1.80;1.10;;;;;;;21.81;35.02;102582.97;20826574;28;20059;-61
2022/12/10 10:55:00;;;;;;;0.95;0.88;;;;;;;21.78;35.33;102611.31;20827244;28;20053;-61
2022/12/10 11:05:17;;;;;;;0.77;0.70;;;;;;;21.74;35.41;102615.69;20805806;28;20100;-61
2022/12/10 11:15:27;;;;;;;0.60;0.60;;;;;;;21.74;35.51;102632.41;20826608;28;20064;-61
2022/12/10 11:26:03;;;;;;;1.02;0.70;;;;;;;21.74;35.45;102631.56;20796382;28;20038;-62
2022/12/10 11:36:38;;;;;;;1.15;0.77;;;;;;;21.72;35.19;102658.84;20684348;28;20041;-62
2022/12/10 11:47:17;;;;;;;1.00;0.90;;;;;;;21.74;35.09;102660.28;20834169;28;20050;-63
2022/12/10 11:57:31;;;;;;;0.97;0.80;;;;;;;21.80;35.18;102675.16;20816479;28;20115;-63
2022/12/10 12:07:41;;;;;;;0.65;0.65;;;;;;;21.85;34.88;102660.47;20840176;28;20091;-62
2022/12/10 12:17:50;;;;;;;2.70;0.88;;;;;;;21.73;34.92;102660.53;20839209;28;20103;-62
2022/12/10 12:28:00;;;;;;;1.02;0.80;;;;;;;21.78;34.81;102658.69;20836648;28;20404;-61
2022/12/10 12:38:22;;;;;;;0.93;0.80;;;;;;;21.82;35.04;102704.50;20813457;28;20046;-62
2022/12/10 12:48:34;;;;;;;0.93;0.77;;;;;;;21.83;35.09;102713.69;20813157;28;20050;-62
2022/12/10 12:58:51;;;;;;;0.63;0.60;;;;;;;21.89;34.59;102720.22;20832480;28;20048;-62
2022/12/10 13:09:07;;;;;;;0.77;0.60;;;;;;;21.87;34.87;102733.56;20834628;28;20037;-62
2022/12/10 13:19:20;;;;;;;1.30;0.77;;;;;;;21.86;35.10;102745.81;20833700;28;20099;-62
2022/12/10 13:29:26;;;;;;;0.70;0.60;;;;;;;21.89;34.96;102750.88;20831401;28;20115;-63
2022/12/10 13:39:36;;;;;;;4.50;1.00;;;;;;;21.89;34.96;102750.88;20829267;28;20458;-61
2022/12/10 13:50:14;;;;;;;3.03;0.77;;;;;;;21.82;35.02;102760.22;20841810;28;20675;-61
2022/12/10 14:00:29;;;;;;;1.60;0.80;;;;;;;21.81;34.65;102764.09;20811434;28;20108;-60
2022/12/10 14:10:34;;;;;;;4.18;0.88;;;;;;;21.90;34.61;102791.59;20812393;28;20358;-62
2022/12/10 14:20:40;;;;;;;2.47;0.80;;;;;;;21.91;34.64;102804.47;20854069;28;20049;-62
2022/12/10 14:30:47;;;;;;;1.15;0.98;;;;;;;21.86;34.96;102785.69;20810889;28;20041;-62
2022/12/10 14:40:49;;;;;;;2.53;0.80;;;;;;;21.91;34.78;102783.00;20824507;28;20084;-60
2022/12/10 14:50:51;;;;;;;6.70;1.25;;;;;;;21.81;34.87;102777.19;20796068;28;20038;-62
2022/12/10 15:00:52;;;;;;;3.42;0.80;;;;;;;21.90;34.98;102797.16;20818942;28;20079;-61
2022/12/10 15:10:59;;;;;;;4.50;1.15;;;;;;;21.77;35.04;102776.84;20823254;28;20037;-62
2022/12/10 15:21:09;;;;;;;3.97;1.30;;;;;;;21.90;35.13;102808.31;20831424;28;20114;-62
2022/12/10 15:31:28;;;;;;;6.10;1.52;;;;;;;21.90;35.12;102786.88;20830276;28;20064;-62
2022/12/10 15:41:38;;;;;;;;;;;;;;;21.92;35.12;102783.84;20811358;28;20046;-62
2022/12/10 15:51:39;;;;;;;5.20;1.65;;;;;;;21.96;35.42;102762.75;20820096;28;19924;-61
2022/12/10 16:01:40;;;;;;;6.68;1.60;;;;;;;21.94;35.29;102731.47;20817682;28;20511;-61
2022/12/10 16:11:47;;;;;;;7.85;2.38;;;;;;;21.80;35.72;102711.38;20827432;28;20096;-61
2022/12/10 16:21:49;;;;;;;6.65;2.00;;;;;;;21.98;35.73;102744.69;20838764;28;20048;-61
2022/12/10 16:31:53;;;;;;;10.32;2.65;;;;;;;21.99;36.43;102738.03;20805222;28;20115;-62
2022/12/10 16:41:54;;;;;;;13.38;2.60;;;;;;;;;;20830678;28;20439;-62
2022/12/10 16:51:56;;;;;;;13.88;2.63;;;;;;;21.99;38.62;102695.34;20814624;28;20053;-62
2022/12/10 17:02:00;;;;;;;6.97;2.10;;;;;;;22.08;38.06;102696.66;20816423;28;20102;-61
2022/12/10 17:12:01;;;;;;;6.85;1.90;;;;;;;22.13;37.88;102694.03;20823788;28;20048;-62
2022/12/10 17:22:04;;;;;;;6.75;2.10;;;;;;;22.16;37.92;102682.38;20837620;28;20481;-63
2022/12/10 17:32:11;;;;;;;31.25;4.57;;;;;;;22.22;37.71;102666.59;20828377;28;20420;-62
2022/12/10 17:42:12;;;;;;;26.73;2.78;;;;;;;22.26;37.17;102681.72;20827034;28;20049;-61
2022/12/10 17:52:13;;;;;;;26.52;3.30;;;;;;;22.29;37.28;102668.13;20820738;28;20068;-61
2022/12/10 18:02:15;;;;;;;17.30;2.05;;;;;;;22.35;37.03;102683.03;20825230;28;20045;-62
2022/12/10 18:12:19;;;;;;;7.63;1.60;;;;;;;22.40;36.80;102665.53;20804617;28;20451;-62
2022/12/10 18:22:21;;;;;;;8.10;1.63;;;;;;;22.43;36.96;102635.22;20822813;28;20042;-63
2022/12/10 18:32:25;;;;;;;5.28;2.08;;;;;;;22.49;36.76;102650.09;20840585;28;20045;-62
2022/12/10 18:42:26;;;;;;;9.57;1.48;;;;;;;22.52;36.83;102644.03;20832799;28;20467;-60
2022/12/10 18:52:27;;;;;;;6.47;1.42;;;;;;;22.54;36.89;102616.69;20829033;28;20049;-61
2022/12/10 19:02:29;;;;;;;9.65;1.88;;;;;;;22.56;36.92;102622.91;20784149;28;20080;-61
2022/12/10 19:12:33;;;;;;;4.10;1.08;;;;;;;22.56;36.31;102625.69;20824727;28;20476;-62
2022/12/10 19:22:34;;;;;;;7.80;1.42;;;;;;;22.55;36.01;102637.94;20818916;28;20042;-62
2022/12/10 19:32:37;;;;;;;3.83;1.35;;;;;;;22.58;35.65;102643.00;20814448;28;20558;-62
2022/12/10 19:42:39;;;;;;;5.68;1.30;;;;;;;22.64;35.75;102647.59;20816081;28;20116;-63
2022/12/10 19:52:40;;;;;;;23.95;3.33;;;;;;;22.67;35.98;102651.81;20788874;28;20046;-62
2022/12/10 20:02:41;;;;;;;22.63;3.05;;;;;;;22.74;36.22;102672.06;20814434;28;20111;-63
2022/12/10 20:12:43;;;;;;;12.23;2.10;;;;;;;22.76;36.28;102656.72;20809045;28;20468;-63
2022/12/10 20:22:44;;;;;;;19.35;2.75;;;;;;;22.80;36.11;102665.44;20813523;28;20054;-62
2022/12/10 20:32:47;;;;;;;16.85;2.78;;;;;;;22.83;35.85;102646.25;20796141;28;20103;-62
2022/12/10 20:42:48;;;;;;;13.45;2.83;;;;;;;22.86;35.84;102658.84;20835686;28;20485;-62
2022/12/10 20:52:52;;;;;;;15.48;2.67;;;;;;;22.90;35.89;102662.03;20834309;28;20045;-62
2022/12/10 21:02:54;;;;;;;7.50;1.95;;;;;;;22.92;35.44;102635.56;20809914;28;20046;-62
2022/12/10 21:12:58;;;;;;;19.67;2.30;;;;;;;22.94;35.54;102636.13;20810370;28;20601;-61
2022/12/10 21:23:00;;;;;;;20.45;2.42;;;;;;;22.97;35.38;102644.00;20820053;28;20444;-62
2022/12/10 21:33:02;;;;;;;10.57;1.92;;;;;;;22.96;34.01;102650.69;20810500;28;20041;-62
2022/12/10 21:43:15;;;;;;;11.48;1.88;;;;;;;22.95;34.33;102642.56;20828115;28;20050;-63
2022/12/10 21:53:16;;;;;;;17.83;2.70;;;;;;;22.84;35.89;102634.00;20828716;28;20049;-62
2022/12/10 22:03:18;;;;;;;41.40;4.75;;;;;;;22.95;36.49;102665.72;20825663;28;20045;-61
2022/12/10 22:13:19;;;;;;;25.10;2.95;;;;;;;23.03;36.36;102656.09;20829738;28;20041;-60
2022/12/10 22:23:21;;;;;;;20.55;2.35;;;;;;;23.01;36.21;102647.16;20829033;28;20053;-62
2022/12/10 22:33:28;;;;;;;13.60;2.50;;;;;;;23.05;35.99;102645.53;20829212;28;20052;-62
2022/12/10 22:43:30;;;;;;;10.27;1.92;;;;;;;23.08;35.76;102647.81;20827296;28;20050;-62
2022/12/10 22:53:34;;;;;;;9.13;1.67;;;;;;;22.77;35.17;102602.63;20793885;28;20103;-62
2022/12/10 23:03:35;;;;;;;12.82;2.17;;;;;;;23.10;35.52;102656.78;20823619;28;20041;-62
2022/12/10 23:13:38;;;;;;;5.43;2.45;;;;;;;23.10;35.60;102670.75;20825663;28;20080;-63
2022/12/10 23:23:39;;;;;;;7.57;3.40;;;;;;;23.11;35.15;102669.66;20824951;28;20080;-63
2022/12/10 23:33:41;;;;;;;8.02;3.00;;;;;;;23.11;35.23;102666.00;20824404;28;20037;-62
2022/12/10 23:43:42;;;;;;;4.78;2.90;;;;;;;22.73;35.28;102604.22;20827683;28;20497;-63
2022/12/10 23:53:46;;;;;;;11.35;3.35;;;;;;;23.04;34.95;102658.63;20830255;28;20112;-63
